Time;durP1;ratioP1;P1;durP2;ratioP2;P2;SDS_P1;SDS_P2;PMS_P1;PMS_P2;Temp;Humidity;BMP_temperature;BMP_pressure;BME280_temperature;BME280_humidity;BME280_pressure;Samples;Min_cycle;Max_cycle;Signal;HPM_P1;HPM_P2
2022/12/23 00:00:57;;;;;;;28.08;12.38;;;11.90;99.90;;;;;;5025716;28;20025;-71
2022/12/23 00:03:23;;;;;;;32.05;12.60;;;11.90;99.90;;;;;;5024487;28;20025;-71
2022/12/23 00:05:51;;;;;;;33.47;11.50;;;11.90;99.90;;;;;;5025788;28;20501;-71
2022/12/23 00:08:17;;;;;;;30.88;12.00;;;11.90;99.90;;;;;;5026710;28;20027;-70
2022/12/23 00:10:43;;;;;;;33.67;12.07;;;11.90;99.90;;;;;;5026281;28;20021;-71
2022/12/23 00:16:11;;;;;;;29.13;12.20;;;11.90;99.90;;;;;;5028019;28;20053;-70
2022/12/23 00:18:37;;;;;;;28.83;11.20;;;11.90;99.90;;;;;;5022044;28;20375;-70
2022/12/23 00:21:06;;;;;;;33.30;11.27;;;11.90;99.90;;;;;;5024585;28;20029;-71
2022/12/23 00:23:33;;;;;;;31.50;12.40;;;11.80;99.90;;;;;;5021278;28;20036;-71
2022/12/23 00:25:59;;;;;;;28.23;12.70;;;11.90;99.90;;;;;;5027080;28;20022;-68
2022/12/23 00:28:26;;;;;;;33.75;12.75;;;11.90;99.90;;;;;;5021752;28;20042;-71
2022/12/23 00:31:03;;;;;;;31.42;12.80;;;11.90;99.90;;;;;;5024993;28;20021;-70
2022/12/23 00:33:31;;;;;;;25.33;12.65;;;11.90;99.90;;;;;;5023270;28;20064;-71
2022/12/23 00:35:57;;;;;;;34.20;14.18;;;11.90;99.90;;;;;;5029829;28;20428;-70
2022/12/23 00:44:04;;;;;;;39.22;12.45;;;11.90;99.90;;;;;;5025239;28;20048;-70
2022/12/23 00:46:31;;;;;;;28.73;12.13;;;11.90;99.90;;;;;;5027550;28;20470;-70
2022/12/23 00:51:43;;;;;;;33.92;12.75;;;11.90;99.90;;;;;;5028138;28;20049;-70
2022/12/23 00:54:08;;;;;;;27.13;12.00;;;11.90;99.90;;;;;;5027063;28;20030;-70
2022/12/23 00:56:34;;;;;;;31.05;12.80;;;11.80;99.90;;;;;;5027468;28;20512;-70
2022/12/23 00:59:00;;;;;;;25.20;12.38;;;11.90;99.90;;;;;;5027833;28;20045;-71
2022/12/23 01:06:56;;;;;;;33.55;14.98;;;11.90;99.90;;;;;;5029865;28;20551;-70
2022/12/23 01:09:21;;;;;;;34.50;14.23;;;11.90;99.90;;;;;;5025931;28;20034;-70
2022/12/23 01:11:47;;;;;;;34.58;13.43;;;11.90;99.90;;;;;;5030055;28;20124;-70
2022/12/23 01:14:13;;;;;;;28.08;13.35;;;11.90;99.90;;;;;;5029514;28;20037;-69
2022/12/23 01:16:39;;;;;;;35.80;15.60;;;11.90;99.90;;;;;;5029016;28;20033;-69
2022/12/23 01:19:06;;;;;;;33.78;14.00;;;11.90;99.90;;;;;;5030718;28;20021;-69
2022/12/23 01:21:32;;;;;;;30.75;13.40;;;12.00;99.90;;;;;;5024468;28;20488;-70
2022/12/23 01:23:58;;;;;;;29.35;13.35;;;11.90;99.90;;;;;;5026811;28;20127;-70
2022/12/23 01:26:23;;;;;;;36.72;16.30;;;11.80;99.90;;;;;;5028868;28;20034;-70
2022/12/23 01:28:53;;;;;;;30.67;13.20;;;11.80;99.90;;;;;;5023922;28;20096;-70
2022/12/23 01:31:19;;;;;;;34.22;14.70;;;11.80;99.90;;;;;;5027284;28;20022;-69
2022/12/23 01:33:44;;;;;;;33.17;13.75;;;11.90;99.90;;;;;;5027473;28;20501;-70
2022/12/23 01:36:10;;;;;;;30.70;12.57;;;11.90;99.90;;;;;;5030142;28;20164;-69
2022/12/23 01:38:36;;;;;;;35.30;14.48;;;11.90;99.90;;;;;;5029265;28;20486;-69
2022/12/23 01:41:02;;;;;;;25.95;13.48;;;11.90;99.90;;;;;;5029422;28;20099;-70
2022/12/23 01:43:46;;;;;;;35.13;13.70;;;11.90;99.90;;;;;;5029531;28;20049;-70
2022/12/23 01:46:11;;;;;;;26.38;14.13;;;11.90;99.90;;;;;;5023506;28;20541;-70
2022/12/23 01:48:38;;;;;;;32.28;14.45;;;11.90;99.90;;;;;;5029637;28;20112;-70
2022/12/23 01:51:13;;;;;;;27.25;14.02;;;11.90;99.90;;;;;;5028179;28;20121;-70
2022/12/23 01:53:44;;;;;;;25.52;13.63;;;11.90;99.90;;;;;;5031682;28;20099;-70
2022/12/23 01:56:15;;;;;;;32.25;14.77;;;11.90;99.90;;;;;;5032511;28;20033;-70
2022/12/23 01:58:48;;;;;;;30.30;13.68;;;11.90;99.90;;;;;;5033401;28;20037;-70
2022/12/23 02:04:02;;;;;;;31.35;15.18;;;11.90;99.90;;;;;;5029489;28;20401;-70
2022/12/23 02:09:36;;;;;;;37.33;14.48;;;11.90;99.90;;;;;;5027508;28;20382;-70
2022/12/23 02:12:26;;;;;;;31.02;15.30;;;11.90;99.90;;;;;;5031038;28;20363;-70
2022/12/23 02:18:13;;;;;;;34.00;16.83;;;11.80;99.90;;;;;;5031784;28;20044;-69
2022/12/23 02:21:00;;;;;;;30.83;16.90;;;11.80;99.90;;;;;;5032870;28;20159;-69
2022/12/23 02:23:53;;;;;;;34.90;17.80;;;11.80;99.90;;;;;;5025155;28;20615;-70
2022/12/23 02:26:40;;;;;;;;;;;11.80;99.90;;;;;;5035051;28;20024;-67
2022/12/23 02:29:11;;;;;;;36.78;17.55;;;11.90;99.90;;;;;;5024123;28;19913;-70
2022/12/23 02:31:46;;;;;;;38.95;17.92;;;11.80;99.90;;;;;;5032487;28;20382;-70
2022/12/23 02:34:40;;;;;;;36.05;18.00;;;11.80;99.90;;;;;;5023535;28;20033;-70
2022/12/23 02:37:10;;;;;;;34.95;18.60;;;11.80;99.90;;;;;;5030870;28;20508;-70
2022/12/23 02:40:08;;;;;;;40.72;19.60;;;11.80;99.90;;;;;;5024166;28;20033;-70
2022/12/23 02:43:08;;;;;;;38.92;19.85;;;11.80;99.90;;;;;;4999748;28;20121;-69
2022/12/23 02:45:46;;;;;;;37.85;17.50;;;11.90;99.90;;;;;;5027427;28;20398;-70
2022/12/23 02:48:30;;;;;;;34.60;17.58;;;12.00;99.90;;;;;;5027748;28;20018;-70
2022/12/23 02:50:57;;;;;;;36.00;17.00;;;11.90;99.90;;;;;;5027989;28;20029;-70
2022/12/23 02:53:32;;;;;;;40.13;17.50;;;11.80;99.90;;;;;;5030350;28;20397;-70
2022/12/23 02:56:00;;;;;;;31.92;16.75;;;11.80;99.90;;;;;;5032107;28;20026;-69
2022/12/23 02:58:32;;;;;;;34.70;15.50;;;11.80;99.90;;;;;;5032848;28;20026;-70
2022/12/23 03:00:59;;;;;;;40.53;16.27;;;11.80;99.90;;;;;;5033066;28;20029;-71
2022/12/23 03:03:25;;;;;;;32.90;15.57;;;11.80;99.90;;;;;;5031231;28;20021;-71
2022/12/23 03:05:53;;;;;;;34.13;17.48;;;11.80;99.90;;;;;;5032753;28;20044;-71
2022/12/23 03:08:28;;;;;;;36.83;16.13;;;11.80;99.90;;;;;;5026312;28;20049;-71
2022/12/23 03:11:09;;;;;;;31.73;15.75;;;11.80;99.90;;;;;;5029367;28;20106;-72
2022/12/23 03:13:51;;;;;;;30.55;15.88;;;11.80;99.90;;;;;;5035032;28;20022;-72
2022/12/23 03:16:23;;;;;;;38.42;15.95;;;11.80;99.90;;;;;;5026185;28;20034;-70
2022/12/23 03:19:07;;;;;;;28.25;14.77;;;11.80;99.90;;;;;;5025416;28;20075;-71
2022/12/23 03:21:49;;;;;;;34.80;16.83;;;11.70;99.90;;;;;;5027240;28;20096;-71
2022/12/23 03:24:34;;;;;;;33.35;15.60;;;11.70;99.90;;;;;;5026677;28;20026;-72
2022/12/23 03:27:24;;;;;;;28.60;14.70;;;11.70;99.90;;;;;;5029015;28;20536;-71
2022/12/23 03:29:58;;;;;;;28.35;14.60;;;11.70;99.90;;;;;;5025184;28;20096;-72
2022/12/23 03:32:26;;;;;;;29.10;14.68;;;11.70;99.90;;;;;;5025381;28;20017;-71
2022/12/23 03:34:55;;;;;;;31.38;15.77;;;11.70;99.90;;;;;;5027036;28;20052;-71
2022/12/23 03:37:25;;;;;;;29.92;14.80;;;11.80;99.90;;;;;;5023510;28;20034;-71
2022/12/23 03:40:07;;;;;;;40.58;15.25;;;11.70;99.90;;;;;;5025877;28;20033;-70
2022/12/23 03:42:42;;;;;;;34.53;15.63;;;11.70;99.90;;;;;;5022711;28;20092;-70
2022/12/23 03:45:13;;;;;;;31.70;17.25;;;11.70;99.90;;;;;;5024183;28;20112;-70
2022/12/23 03:47:52;;;;;;;35.90;15.93;;;11.70;99.90;;;;;;5023757;28;20080;-71
2022/12/23 03:50:21;;;;;;;32.13;15.77;;;11.70;99.90;;;;;;5025337;28;20080;-71
2022/12/23 03:53:09;;;;;;;32.85;15.82;;;11.70;99.90;;;;;;5017687;28;20017;-71
2022/12/23 03:55:47;;;;;;;36.55;17.42;;;11.70;99.90;;;;;;5023690;28;20512;-71
2022/12/23 03:58:48;;;;;;;36.38;16.98;;;11.70;99.90;;;;;;5024389;28;20033;-72
2022/12/23 04:01:39;;;;;;;40.58;17.67;;;11.70;99.90;;;;;;5021528;28;20034;-72
2022/12/23 04:04:16;;;;;;;40.75;17.90;;;11.70;99.90;;;;;;5018786;28;20041;-72
2022/12/23 04:06:54;;;;;;;36.05;15.40;;;11.80;99.90;;;;;;5034716;28;20352;-72
2022/12/23 04:09:21;;;;;;;42.25;16.77;;;11.80;99.90;;;;;;5024324;28;20037;-72
2022/12/23 04:11:48;;;;;;;41.22;17.42;;;11.80;99.90;;;;;;5025379;28;20485;-72
2022/12/23 04:14:21;;;;;;;42.65;18.35;;;11.80;99.90;;;;;;5024222;28;20033;-72
2022/12/23 04:16:52;;;;;;;40.28;18.30;;;11.80;99.90;;;;;;5023729;28;20096;-70
2022/12/23 04:19:17;;;;;;;43.90;19.25;;;11.80;99.90;;;;;;5020805;28;20032;-71
2022/12/23 04:21:43;;;;;;;47.10;19.08;;;11.80;99.90;;;;;;5037878;28;20033;-72
2022/12/23 04:24:08;;;;;;;48.67;18.75;;;11.80;99.90;;;;;;5021586;28;20068;-71
2022/12/23 04:26:34;;;;;;;42.78;18.33;;;11.70;99.90;;;;;;5026922;28;20045;-71
2022/12/23 04:28:59;;;;;;;41.63;18.33;;;11.80;99.90;;;;;;5021500;28;20108;-71
2022/12/23 04:31:25;;;;;;;56.60;19.73;;;11.80;99.90;;;;;;5023914;28;20381;-71
2022/12/23 04:33:51;;;;;;;38.60;18.15;;;11.90;99.90;;;;;;5024098;28;20025;-71
2022/12/23 04:36:16;;;;;;;48.38;19.27;;;11.90;99.90;;;;;;5022433;28;20167;-70
2022/12/23 04:38:42;;;;;;;51.35;20.38;;;11.90;99.90;;;;;;5021717;28;20502;-71
2022/12/23 04:41:07;;;;;;;43.10;19.45;;;11.80;99.90;;;;;;5019386;28;20033;-71
2022/12/23 04:43:33;;;;;;;45.45;19.65;;;11.80;99.90;;;;;;5026023;28;20449;-71
2022/12/23 04:45:58;;;;;;;50.00;19.38;;;11.80;99.90;;;;;;5023629;28;20033;-71
2022/12/23 04:48:24;;;;;;;42.25;19.27;;;11.90;99.90;;;;;;5018321;28;20030;-71
2022/12/23 04:50:49;;;;;;;39.85;18.48;;;11.80;99.90;;;;;;5018901;28;20086;-72
2022/12/23 04:53:15;;;;;;;42.30;18.52;;;11.80;99.90;;;;;;5020558;28;20022;-70
2022/12/23 04:55:41;;;;;;;43.95;18.00;;;11.80;99.90;;;;;;5016937;28;20021;-70
2022/12/23 04:58:06;;;;;;;43.17;19.50;;;11.80;99.90;;;;;;5023386;28;20033;-70
2022/12/23 05:00:32;;;;;;;46.92;18.92;;;11.80;99.90;;;;;;5023813;28;20026;-69
2022/12/23 05:02:57;;;;;;;41.47;19.08;;;11.80;99.90;;;;;;5024308;28;20033;-70
2022/12/23 05:05:23;;;;;;;42.63;20.30;;;11.80;99.90;;;;;;5023211;28;20535;-70
2022/12/23 05:07:49;;;;;;;41.47;18.42;;;11.90;99.90;;;;;;5021865;28;20021;-69
2022/12/23 05:10:15;;;;;;;47.67;20.92;;;11.80;99.90;;;;;;5023996;28;20049;-70
2022/12/23 05:12:40;;;;;;;42.33;19.58;;;11.80;99.90;;;;;;5022062;28;20119;-70
2022/12/23 05:15:07;;;;;;;50.75;21.05;;;11.80;99.90;;;;;;5020453;28;20459;-70
2022/12/23 05:17:33;;;;;;;41.97;21.08;;;11.80;99.90;;;;;;5019605;28;20147;-69
2022/12/23 05:19:58;;;;;;;40.72;19.42;;;11.90;99.90;;;;;;5021918;28;20028;-69
2022/12/23 05:22:24;;;;;;;44.53;18.92;;;11.90;99.90;;;;;;5026663;28;20069;-69
2022/12/23 05:24:49;;;;;;;44.03;19.92;;;11.80;99.90;;;;;;5028306;28;20033;-70
2022/12/23 05:27:15;;;;;;;41.95;19.48;;;11.80;99.90;;;;;;5025056;28;20022;-69
2022/12/23 05:29:40;;;;;;;42.22;19.15;;;11.80;99.90;;;;;;5028749;28;20379;-69
2022/12/23 05:32:06;;;;;;;42.53;18.20;;;11.80;99.90;;;;;;5030560;28;20024;-69
2022/12/23 05:34:32;;;;;;;44.25;17.95;;;11.80;99.90;;;;;;5034095;28;20037;-70
2022/12/23 05:36:57;;;;;;;37.70;18.20;;;11.80;99.90;;;;;;5029137;28;20049;-70
2022/12/23 05:39:23;;;;;;;43.80;17.38;;;11.90;99.90;;;;;;5022758;28;20117;-69
2022/12/23 05:41:48;;;;;;;34.75;16.13;;;11.80;99.90;;;;;;5033127;28;20044;-70
2022/12/23 05:44:14;;;;;;;37.40;15.07;;;11.80;99.90;;;;;;5022075;28;20030;-70
2022/12/23 05:46:39;;;;;;;35.60;16.02;;;11.70;99.90;;;;;;5030328;28;20059;-71
2022/12/23 05:49:05;;;;;;;40.70;16.33;;;11.80;99.90;;;;;;5031793;28;20057;-70
2022/12/23 05:51:31;;;;;;;39.42;15.57;;;11.80;99.90;;;;;;5025544;28;20044;-70
2022/12/23 05:53:56;;;;;;;43.55;17.23;;;11.80;99.90;;;;;;5029750;28;20100;-70
2022/12/23 05:56:22;;;;;;;43.45;18.20;;;11.80;99.90;;;;;;5027077;28;20033;-71
2022/12/23 05:58:47;;;;;;;33.08;17.15;;;11.80;99.90;;;;;;5027505;28;20045;-70
2022/12/23 06:01:13;;;;;;;43.10;17.75;;;11.70;99.90;;;;;;5021563;28;20044;-71
2022/12/23 06:03:39;;;;;;;35.20;16.98;;;11.80;99.90;;;;;;5024279;28;20029;-71
2022/12/23 06:06:05;;;;;;;45.20;17.58;;;11.80;99.90;;;;;;5021090;28;20030;-71
2022/12/23 06:08:30;;;;;;;43.58;18.48;;;11.80;99.90;;;;;;5019128;28;20379;-71
2022/12/23 06:10:56;;;;;;;47.53;18.38;;;11.80;99.90;;;;;;5020579;28;20156;-71
2022/12/23 06:13:21;;;;;;;52.33;20.50;;;11.80;99.90;;;;;;5025928;28;20033;-71
2022/12/23 06:15:47;;;;;;;47.00;18.45;;;11.80;99.90;;;;;;5025748;28;20060;-71
2022/12/23 06:18:12;;;;;;;45.80;18.10;;;11.80;99.90;;;;;;5026020;28;20038;-70
2022/12/23 06:20:38;;;;;;;47.08;18.40;;;11.90;99.90;;;;;;5021316;28;20052;-70
2022/12/23 06:23:04;;;;;;;40.15;16.65;;;11.90;99.90;;;;;;5027259;28;20029;-71
2022/12/23 06:25:29;;;;;;;50.78;17.63;;;11.90;99.90;;;;;;5023766;28;20378;-70
2022/12/23 06:27:55;;;;;;;56.35;19.63;;;11.90;99.90;;;;;;5026803;28;20036;-70
2022/12/23 06:30:20;;;;;;;48.80;17.48;;;11.90;99.90;;;;;;5033746;28;20148;-70
2022/12/23 06:32:46;;;;;;;54.95;21.77;;;11.90;99.90;;;;;;5027848;28;20367;-70
2022/12/23 06:35:12;;;;;;;44.72;19.98;;;11.90;99.90;;;;;;5021931;28;20025;-70
2022/12/23 06:37:37;;;;;;;59.55;19.63;;;12.00;99.90;;;;;;5024369;28;20030;-70
2022/12/23 06:40:03;;;;;;;50.17;19.15;;;12.00;99.90;;;;;;5033352;28;20035;-70
2022/12/23 06:42:29;;;;;;;47.08;19.60;;;11.90;99.90;;;;;;5026952;28;20029;-70
2022/12/23 06:44:55;;;;;;;43.78;18.48;;;11.90;99.90;;;;;;5028812;28;20370;-70
2022/12/23 06:47:20;;;;;;;40.92;17.00;;;11.90;99.90;;;;;;5024084;28;20033;-70
2022/12/23 06:49:46;;;;;;;44.90;16.92;;;11.90;99.90;;;;;;5025414;28;20022;-71
2022/12/23 06:52:11;;;;;;;42.72;16.55;;;11.90;99.90;;;;;;5027217;28;20029;-69
2022/12/23 06:54:37;;;;;;;38.10;14.48;;;11.90;99.90;;;;;;5023972;28;20462;-70
2022/12/23 06:57:02;;;;;;;40.40;15.30;;;11.80;99.90;;;;;;5023968;28;20099;-70
2022/12/23 06:59:28;;;;;;;36.58;15.82;;;11.70;99.90;;;;;;5032948;28;20017;-70
2022/12/23 07:01:54;;;;;;;45.53;16.55;;;11.80;99.90;;;;;;5030259;28;20025;-70
2022/12/23 07:04:20;;;;;;;36.83;14.73;;;11.80;99.90;;;;;;5032399;28;20077;-69
2022/12/23 07:06:45;;;;;;;35.75;14.98;;;11.80;99.90;;;;;;5028027;28;20089;-69
2022/12/23 07:09:11;;;;;;;30.48;13.90;;;11.80;99.90;;;;;;5020709;28;20033;-70
2022/12/23 07:11:36;;;;;;;37.15;12.85;;;11.80;99.90;;;;;;5033106;28;20080;-70
2022/12/23 07:14:02;;;;;;;31.63;13.00;;;11.80;99.90;;;;;;5020213;28;20029;-70
2022/12/23 07:16:27;;;;;;;36.97;13.15;;;11.80;99.90;;;;;;5025889;28;20034;-70
2022/12/23 07:18:53;;;;;;;33.10;13.98;;;11.80;99.90;;;;;;5027585;28;20467;-71
2022/12/23 07:21:18;;;;;;;33.33;13.00;;;11.80;99.90;;;;;;5029296;28;20029;-69
2022/12/23 07:23:44;;;;;;;35.35;12.90;;;11.80;99.90;;;;;;5025325;28;20026;-70
2022/12/23 07:26:10;;;;;;;34.17;13.18;;;11.90;99.90;;;;;;5022349;28;20017;-70
2022/12/23 07:28:35;;;;;;;28.85;10.68;;;11.90;99.90;;;;;;5018944;28;20026;-70
2022/12/23 07:31:05;;;;;;;26.42;11.60;;;11.90;99.90;;;;;;5021897;28;20366;-69
2022/12/23 07:33:30;;;;;;;29.48;12.40;;;11.90;99.90;;;;;;5021037;28;20033;-70
2022/12/23 07:35:59;;;;;;;31.80;11.70;;;11.90;99.90;;;;;;5022089;28;20462;-70
2022/12/23 07:38:25;;;;;;;33.35;11.50;;;11.90;99.90;;;;;;5024958;28;20520;-70
2022/12/23 07:40:50;;;;;;;36.13;12.13;;;11.90;99.90;;;;;;5028446;28;20025;-69
2022/12/23 07:43:16;;;;;;;29.88;11.32;;;11.80;99.90;;;;;;5017405;28;20107;-69
2022/12/23 07:45:42;;;;;;;35.67;11.40;;;11.90;99.90;;;;;;5026410;28;20025;-69
2022/12/23 07:48:07;;;;;;;29.75;11.48;;;11.90;99.90;;;;;;5019491;28;20030;-70
2022/12/23 07:50:33;;;;;;;29.23;10.82;;;11.90;99.90;;;;;;5025838;28;20037;-70
2022/12/23 07:52:58;;;;;;;36.85;12.48;;;11.80;99.90;;;;;;5033325;28;20402;-70
2022/12/23 07:55:24;;;;;;;35.65;15.23;;;11.90;99.90;;;;;;5022338;28;20143;-69
2022/12/23 07:57:51;;;;;;;51.20;19.23;;;11.90;99.90;;;;;;5025227;28;20045;-70
2022/12/23 08:00:18;;;;;;;41.55;16.45;;;11.90;99.90;;;;;;5022042;28;20022;-69
2022/12/23 08:02:44;;;;;;;35.85;14.93;;;11.90;99.90;;;;;;5023071;28;20042;-70
2022/12/23 08:05:10;;;;;;;34.90;14.05;;;11.90;99.90;;;;;;5022733;28;20487;-69
2022/12/23 08:07:36;;;;;;;30.90;13.57;;;11.90;99.90;;;;;;5026885;28;20586;-69
2022/12/23 08:10:03;;;;;;;42.80;14.95;;;11.90;99.90;;;;;;5026625;28;20091;-70
2022/12/23 08:12:29;;;;;;;38.55;16.05;;;11.80;99.90;;;;;;5025234;28;20041;-70
2022/12/23 08:14:54;;;;;;;38.53;15.70;;;11.80;99.90;;;;;;5022673;28;20037;-69
2022/12/23 08:17:20;;;;;;;41.53;15.20;;;11.80;99.90;;;;;;5024078;28;20052;-69
2022/12/23 08:19:49;;;;;;;40.65;16.55;;;11.80;99.90;;;;;;5015003;28;20343;-70
2022/12/23 08:22:15;;;;;;;40.13;15.35;;;11.80;99.90;;;;;;5021656;28;20096;-69
2022/12/23 08:24:41;;;;;;;40.95;17.38;;;11.80;99.90;;;;;;5029419;28;20096;-69
2022/12/23 08:27:06;;;;;;;49.60;16.80;;;11.90;99.90;;;;;;5021775;28;20048;-69
2022/12/23 08:29:32;;;;;;;40.95;16.48;;;11.90;99.90;;;;;;5026516;28;20417;-70
2022/12/23 08:31:57;;;;;;;42.50;17.40;;;11.90;99.90;;;;;;5023669;28;20029;-69
2022/12/23 08:34:23;;;;;;;38.38;14.90;;;11.90;99.90;;;;;;5016114;28;20029;-69
2022/12/23 08:36:49;;;;;;;33.40;14.10;;;11.80;99.90;;;;;;5020460;28;20079;-69
2022/12/23 08:39:15;;;;;;;32.22;13.57;;;11.80;99.90;;;;;;5025473;28;20034;-69
2022/12/23 08:41:46;;;;;;;33.97;12.93;;;11.80;99.90;;;;;;5032996;28;20025;-69
2022/12/23 08:44:12;;;;;;;31.17;13.98;;;11.80;99.90;;;;;;5022791;28;20060;-69
2022/12/23 08:46:39;;;;;;;34.88;13.88;;;11.80;99.90;;;;;;5029566;28;20021;-70
2022/12/23 08:49:05;;;;;;;33.05;13.48;;;11.80;99.90;;;;;;5021693;28;20030;-69
2022/12/23 08:51:32;;;;;;;32.92;12.43;;;11.90;99.90;;;;;;5027139;28;20099;-69
2022/12/23 08:53:59;;;;;;;34.65;14.82;;;11.90;99.90;;;;;;5032014;28;20014;-69
2022/12/23 08:56:27;;;;;;;32.85;14.30;;;11.70;99.90;;;;;;5027106;28;20022;-69
2022/12/23 08:58:54;;;;;;;30.05;13.15;;;11.70;99.90;;;;;;5027505;28;20494;-69
2022/12/23 09:01:22;;;;;;;29.40;13.30;;;11.70;99.90;;;;;;5026004;28;20029;-69
2022/12/23 09:03:49;;;;;;;33.88;13.82;;;11.70;99.90;;;;;;5032146;28;20021;-69
2022/12/23 09:06:17;;;;;;;29.08;14.50;;;11.80;99.90;;;;;;5035397;28;20053;-70
2022/12/23 09:08:44;;;;;;;32.17;14.65;;;11.80;99.90;;;;;;5030098;28;20403;-69
2022/12/23 09:11:14;;;;;;;29.80;13.73;;;11.70;99.90;;;;;;5025908;28;20443;-70
2022/12/23 09:13:41;;;;;;;30.95;15.07;;;11.70;99.90;;;;;;5018926;28;20025;-70
2022/12/23 09:16:07;;;;;;;29.10;12.68;;;11.60;99.90;;;;;;5028294;28;20076;-69
2022/12/23 09:18:33;;;;;;;24.90;12.68;;;11.60;99.90;;;;;;5026198;28;20544;-69
2022/12/23 09:21:06;;;;;;;31.52;14.38;;;11.70;99.90;;;;;;5020530;28;20026;-69
2022/12/23 09:23:33;;;;;;;28.88;12.82;;;11.70;99.90;;;;;;5019317;28;20028;-69
2022/12/23 09:25:58;;;;;;;27.85;12.98;;;11.70;99.90;;;;;;5027513;28;20024;-69
2022/12/23 09:28:24;;;;;;;25.40;12.15;;;11.70;99.90;;;;;;5028951;28;20038;-69
2022/12/23 09:30:51;;;;;;;30.15;12.55;;;11.60;99.90;;;;;;5030001;28;20026;-69
2022/12/23 09:33:17;;;;;;;28.20;12.40;;;11.70;99.90;;;;;;5032237;28;20085;-69
2022/12/23 09:35:43;;;;;;;31.75;13.55;;;11.70;99.90;;;;;;5020231;28;20023;-69
2022/12/23 09:38:09;;;;;;;22.42;11.60;;;11.70;99.90;;;;;;5023737;28;20478;-69
2022/12/23 09:40:37;;;;;;;35.75;12.77;;;11.70;99.90;;;;;;5029112;28;20026;-70
2022/12/23 09:43:23;;;;;;;24.95;11.85;;;11.70;99.90;;;;;;5030403;28;20021;-69
2022/12/23 09:45:55;;;;;;;22.52;10.85;;;11.60;99.90;;;;;;5024615;28;20045;-70
2022/12/23 09:48:25;;;;;;;23.35;11.68;;;11.60;99.90;;;;;;5029156;28;20042;-69
2022/12/23 09:50:51;;;;;;;32.95;12.02;;;11.60;99.90;;;;;;5024570;28;20028;-70
2022/12/23 09:53:36;;;;;;;29.55;11.73;;;11.70;99.90;;;;;;5024455;28;20156;-69
2022/12/23 09:56:12;;;;;;;26.10;11.70;;;11.80;99.90;;;;;;5026262;28;20057;-70
2022/12/23 09:59:05;;;;;;;23.98;11.32;;;11.80;99.90;;;;;;5026693;28;20132;-69
2022/12/23 10:01:45;;;;;;;19.98;10.77;;;11.80;99.90;;;;;;5020975;28;20055;-70
2022/12/23 10:04:35;;;;;;;23.40;11.50;;;11.80;99.90;;;;;;5026581;28;20029;-69
2022/12/23 10:07:03;;;;;;;28.35;12.65;;;11.80;99.90;;;;;;5021959;28;20034;-69
2022/12/23 10:09:37;;;;;;;28.42;12.05;;;11.80;99.90;;;;;;5023826;28;20106;-69
2022/12/23 10:12:13;;;;;;;27.50;12.30;;;11.80;99.90;;;;;;5023330;28;20443;-69
2022/12/23 10:14:40;;;;;;;28.65;11.73;;;11.80;99.90;;;;;;5027246;28;20120;-69
2022/12/23 10:17:44;;;;;;;34.05;14.50;;;11.70;99.90;;;;;;5020310;28;20033;-69
2022/12/23 10:20:19;;;;;;;30.42;14.65;;;11.60;99.90;;;;;;5031009;28;20549;-69
2022/12/23 10:22:46;;;;;;;27.38;11.85;;;11.60;99.90;;;;;;5021916;28;20508;-70
2022/12/23 10:25:43;;;;;;;24.40;11.55;;;11.50;99.90;;;;;;5030063;28;20108;-69
2022/12/23 10:28:10;;;;;;;25.83;10.45;;;11.60;99.90;;;;;;5022019;28;20065;-69
2022/12/23 10:30:39;;;;;;;23.30;10.82;;;11.60;99.90;;;;;;5021259;28;20018;-70
2022/12/23 10:33:17;;;;;;;24.95;9.85;;;11.70;99.90;;;;;;5024772;28;20306;-70
2022/12/23 10:36:11;;;;;;;18.83;9.20;;;11.70;99.90;;;;;;5022054;28;20036;-70
2022/12/23 10:39:04;;;;;;;20.08;7.97;;;11.80;99.90;;;;;;5027469;28;20037;-70
2022/12/23 10:41:37;;;;;;;20.17;7.72;;;11.70;99.90;;;;;;5030547;28;20037;-70
2022/12/23 10:44:17;;;;;;;18.67;7.35;;;11.70;99.90;;;;;;5030463;28;20061;-70
2022/12/23 10:46:49;;;;;;;17.05;7.05;;;11.70;99.90;;;;;;5025749;28;20033;-69
2022/12/23 10:49:52;;;;;;;19.55;6.88;;;11.70;99.90;;;;;;5029538;28;20030;-69
2022/12/23 10:52:19;;;;;;;;;;;11.70;99.90;;;;;;5030051;28;20041;-70
2022/12/23 10:54:46;;;;;;;17.17;6.75;;;11.60;99.90;;;;;;5033597;28;19913;-71
2022/12/23 10:57:14;;;;;;;15.02;6.63;;;11.70;99.90;;;;;;5024935;28;20033;-70
2022/12/23 10:59:40;;;;;;;18.42;6.78;;;11.80;99.90;;;;;;5031998;28;20032;-70
2022/12/23 11:02:34;;;;;;;16.30;5.88;;;11.70;99.90;;;;;;5020214;28;20022;-70
2022/12/23 11:04:59;;;;;;;19.13;6.30;;;11.60;99.90;;;;;;5026239;28;20052;-71
2022/12/23 11:07:27;;;;;;;18.45;6.60;;;11.70;99.90;;;;;;5019387;28;20052;-70
2022/12/23 11:10:05;;;;;;;21.08;6.72;;;11.60;99.90;;;;;;5028314;28;20017;-70
2022/12/23 11:12:40;;;;;;;19.70;6.78;;;11.60;99.90;;;;;;5022046;28;20037;-70
2022/12/23 11:15:26;;;;;;;23.95;8.50;;;11.50;99.90;;;;;;5030631;28;20025;-70
2022/12/23 11:18:00;;;;;;;24.00;9.13;;;11.50;99.90;;;;;;5025816;28;20044;-72
2022/12/23 11:20:25;;;;;;;30.33;10.27;;;11.60;99.90;;;;;;5030992;28;20083;-70
2022/12/23 11:22:55;;;;;;;24.75;10.13;;;11.50;99.90;;;;;;5029766;28;20482;-70
2022/12/23 11:25:40;;;;;;;26.70;8.88;;;11.60;99.90;;;;;;5034294;28;20024;-70
2022/12/23 11:28:18;;;;;;;21.48;8.82;;;11.60;99.90;;;;;;5026105;28;20033;-70
2022/12/23 11:30:49;;;;;;;30.20;10.23;;;11.60;99.90;;;;;;5025829;28;20382;-70
2022/12/23 11:33:30;;;;;;;25.33;9.60;;;11.60;99.90;;;;;;5022776;28;20040;-70
2022/12/23 11:36:07;;;;;;;27.83;10.55;;;11.60;99.90;;;;;;5024897;28;20026;-71
2022/12/23 11:38:35;;;;;;;23.67;8.90;;;11.60;99.90;;;;;;5015696;28;20132;-71
2022/12/23 11:41:03;;;;;;;24.20;9.38;;;11.60;99.90;;;;;;5026374;28;20474;-71
2022/12/23 11:43:31;;;;;;;29.85;10.10;;;11.60;99.90;;;;;;5017976;28;20434;-71
2022/12/23 11:46:23;;;;;;;22.98;8.75;;;11.50;99.90;;;;;;5029632;28;20045;-71
2022/12/23 11:49:14;;;;;;;25.73;10.02;;;11.60;99.90;;;;;;5024947;28;20482;-69
2022/12/23 11:51:45;;;;;;;25.10;8.73;;;11.60;99.90;;;;;;5027678;28;20041;-69
2022/12/23 11:54:17;;;;;;;28.02;9.05;;;11.60;99.90;;;;;;5029608;28;20046;-69
2022/12/23 11:56:43;;;;;;;23.58;8.90;;;11.60;99.90;;;;;;5028258;28;20467;-69
2022/12/23 11:59:28;;;;;;;22.17;9.18;;;11.60;99.90;;;;;;5021703;28;20052;-68
2022/12/23 12:01:57;;;;;;;23.73;8.43;;;11.60;99.90;;;;;;5022537;28;20025;-69
2022/12/23 12:04:25;;;;;;;22.52;10.48;;;11.70;99.90;;;;;;5026513;28;20057;-69
2022/12/23 12:06:51;;;;;;;22.27;9.40;;;11.70;99.90;;;;;;5025665;28;20530;-70
2022/12/23 12:09:17;;;;;;;27.30;10.35;;;11.70;99.90;;;;;;5013909;28;20044;-69
2022/12/23 12:11:48;;;;;;;33.35;11.90;;;11.70;99.90;;;;;;5005090;28;20033;-70
2022/12/23 12:14:32;;;;;;;20.02;9.38;;;11.60;99.90;;;;;;5025019;28;20044;-69
2022/12/23 12:17:26;;;;;;;21.40;9.75;;;11.60;99.90;;;;;;5028252;28;20489;-69
2022/12/23 12:20:18;;;;;;;20.13;9.48;;;11.60;99.90;;;;;;5024992;28;20072;-69
2022/12/23 12:22:58;;;;;;;26.90;10.23;;;11.50;99.90;;;;;;5021419;28;20022;-70
2022/12/23 12:25:51;;;;;;;26.77;11.05;;;11.60;99.90;;;;;;5024399;28;20072;-69
2022/12/23 12:28:22;;;;;;;23.15;11.02;;;11.60;99.90;;;;;;5024562;28;20026;-69
2022/12/23 12:31:00;;;;;;;27.33;11.73;;;11.50;99.90;;;;;;5022107;28;20033;-70
2022/12/23 12:33:43;;;;;;;27.60;11.55;;;11.50;99.90;;;;;;5057689;28;20185;-70
2022/12/23 12:36:34;;;;;;;25.92;11.77;;;11.50;99.90;;;;;;5027608;28;20034;-70
2022/12/23 12:39:00;;;;;;;31.10;12.50;;;11.50;99.90;;;;;;5020533;28;20045;-71
2022/12/23 12:41:37;;;;;;;25.00;12.63;;;11.50;99.90;;;;;;5024766;28;20024;-71
2022/12/23 12:44:14;;;;;;;22.85;12.00;;;11.50;99.90;;;;;;5028790;28;20136;-71
2022/12/23 12:46:47;;;;;;;22.75;11.95;;;11.50;99.90;;;;;;5019888;28;20029;-71
2022/12/23 12:49:35;;;;;;;27.67;11.85;;;11.50;99.90;;;;;;5026170;28;20041;-71
2022/12/23 12:52:24;;;;;;;28.35;14.27;;;11.40;99.90;;;;;;5022833;28;20053;-70
2022/12/23 12:55:22;;;;;;;23.70;12.48;;;11.50;99.90;;;;;;5023419;28;20033;-70
2022/12/23 12:57:47;;;;;;;20.30;12.38;;;11.50;99.90;;;;;;5024715;28;20466;-71
2022/12/23 13:00:16;;;;;;;25.25;13.15;;;11.50;99.90;;;;;;5027083;28;20116;-71
2022/12/23 13:03:09;;;;;;;22.05;11.70;;;11.40;99.90;;;;;;5020689;28;20591;-71
2022/12/23 13:05:56;;;;;;;19.98;11.65;;;11.50;99.90;;;;;;5026895;28;20033;-70
2022/12/23 13:08:45;;;;;;;23.45;11.57;;;11.60;99.90;;;;;;5027181;28;20035;-70
2022/12/23 13:11:24;;;;;;;21.33;11.57;;;11.50;99.90;;;;;;5024753;28;20021;-70
2022/12/23 13:14:02;;;;;;;19.05;11.77;;;11.50;99.90;;;;;;5026433;28;20466;-70